Time;durP1;ratioP1;P1;durP2;ratioP2;P2;SDS_P1;SDS_P2;PMS_P1;PMS_P2;Temp;Humidity;BMP_temperature;BMP_pressure;BME280_temperature;BME280_humidity;BME280_pressure;Samples;Min_cycle;Max_cycle;Signal;HPM_P1;HPM_P2
2022/09/08 00:00:15;;;;;;;;;4.00;3.33;;;;;17.99;71.70;100202.97;5014534;28;45854;-68
2022/09/08 00:02:40;;;;;;;;;3.00;2.67;;;;;17.91;72.00;100196.84;5011009;28;45490;-69
2022/09/08 00:05:08;;;;;;;;;3.00;2.67;;;;;17.75;71.80;100181.94;5015760;28;45557;-69
2022/09/08 00:07:35;;;;;;;;;2.67;2.67;;;;;17.78;71.91;100181.91;5017307;28;45439;-69
2022/09/08 00:10:02;;;;;;;;;3.33;3.33;;;;;17.77;71.68;100182.81;5031962;28;45413;-69
2022/09/08 00:12:29;;;;;;;;;3.00;3.00;;;;;17.85;72.12;100204.81;5015725;28;45451;-69
2022/09/08 00:14:55;;;;;;;;;3.67;3.00;;;;;17.79;72.53;100194.25;5016617;28;45482;-69
2022/09/08 00:17:22;;;;;;;;;2.67;2.67;;;;;17.78;72.49;100193.34;5016440;28;45368;-69
2022/09/08 00:19:48;;;;;;;;;3.00;2.67;;;;;17.72;72.29;100188.09;5016510;28;45443;-69
2022/09/08 00:22:13;;;;;;;;;4.33;4.00;;;;;17.66;72.42;100186.34;5016006;28;45409;-69
2022/09/08 00:24:39;;;;;;;;;3.33;2.33;;;;;17.52;72.78;100185.53;5016739;28;45462;-69
2022/09/08 00:27:05;;;;;;;;;4.33;4.00;;;;;17.41;72.87;100177.69;5016826;28;45313;-69
2022/09/08 00:29:30;;;;;;;;;4.33;3.00;;;;;17.48;73.45;100204.91;5015818;28;45488;-69
2022/09/08 00:31:56;;;;;;;;;3.00;3.00;;;;;17.35;73.62;100185.63;5014163;28;45399;-69
2022/09/08 00:34:22;;;;;;;;;4.00;4.00;;;;;17.34;74.08;100190.91;5015159;28;45331;-69
2022/09/08 00:36:47;;;;;;;;;3.00;3.00;;;;;17.33;74.18;100200.59;5015933;28;45436;-69
2022/09/08 00:39:15;;;;;;;;;4.00;4.00;;;;;17.23;74.57;100186.53;5016092;28;45533;-69
2022/09/08 00:41:42;;;;;;;;;5.00;4.00;;;;;17.29;74.32;100202.34;5016031;28;45549;-69
2022/09/08 00:44:39;;;;;;;;;3.33;3.33;;;;;17.29;75.03;100193.56;5017722;28;45501;-69
2022/09/08 00:47:21;;;;;;;;;4.00;4.00;;;;;17.31;74.72;100202.34;5017874;28;45453;-69
2022/09/08 00:49:56;;;;;;;;;5.00;3.00;;;;;17.25;74.33;100186.53;5017781;28;46015;-69
2022/09/08 00:52:24;;;;;;;;;4.00;4.00;;;;;17.40;74.36;100196.16;5018648;28;45850;-69
2022/09/08 00:54:49;;;;;;;;;5.00;4.00;;;;;17.38;73.56;100192.66;5018680;28;45522;-77
2022/09/08 00:57:16;;;;;;;;;5.00;4.00;;;;;17.40;73.95;100190.88;5017565;28;45389;-69
2022/09/08 00:59:45;;;;;;;;;4.00;4.00;;;;;17.32;73.93;100187.38;5018712;28;46485;-73
2022/09/08 01:02:23;;;;;;;;;4.33;4.00;;;;;17.37;73.90;100199.69;5018963;28;45604;-69
2022/09/08 01:04:59;;;;;;;;;4.33;4.33;;;;;17.44;74.14;100209.31;5019365;28;45353;-69
2022/09/08 01:13:33;;;;;;;;;4.00;3.00;;;;;17.36;74.08;100203.19;5018063;28;45455;-68
2022/09/08 01:15:59;;;;;;;;;4.33;3.33;;;;;17.37;73.96;100206.72;5018350;28;45439;-69
2022/09/08 01:18:24;;;;;;;;;4.00;3.00;;;;;17.28;73.84;100190.03;5018527;28;45451;-69
2022/09/08 01:21:20;;;;;;;;;4.33;4.00;;;;;17.26;74.32;100193.56;5016479;28;47610;-69
2022/09/08 01:24:25;;;;;;;;;4.00;4.00;;;;;17.26;74.34;100193.56;4988966;28;45520;-70
2022/09/08 01:27:18;;;;;;;;;4.33;4.33;;;;;17.38;74.05;100208.50;5017990;28;45451;-68
2022/09/08 01:29:45;;;;;;;;;5.00;4.00;;;;;17.28;73.83;100202.34;5018853;28;45450;-69
2022/09/08 01:32:13;;;;;;;;;4.33;4.00;;;;;17.14;74.71;100178.63;5016635;28;46967;-69
2022/09/08 01:34:41;;;;;;;;;4.00;4.00;;;;;17.30;74.27;100208.50;5017645;28;45473;-68
2022/09/08 01:37:07;;;;;;;;;4.33;3.67;;;;;17.19;74.53;100200.63;5018358;28;45474;-69
2022/09/08 01:39:32;;;;;;;;;3.67;3.67;;;;;16.75;74.27;100121.53;5017963;28;45478;-69
2022/09/08 01:41:58;;;;;;;;;4.00;4.00;;;;;17.20;74.13;100197.09;5018280;28;45390;-69
2022/09/08 01:44:25;;;;;;;;;4.00;4.00;;;;;17.23;74.06;100206.75;5013882;28;46000;-69
2022/09/08 01:46:51;;;;;;;;;5.00;4.00;;;;;17.27;74.25;100208.53;4998464;28;45555;-69
2022/09/08 01:49:16;;;;;;;;;5.00;5.00;;;;;17.26;73.81;100204.13;4999245;28;45256;-69
2022/09/08 01:51:42;;;;;;;;;5.00;5.00;;;;;17.28;73.98;100211.13;5011013;28;46090;-69
2022/09/08 01:54:08;;;;;;;;;5.00;4.00;;;;;17.23;73.77;100206.75;5012998;28;45456;-69
2022/09/08 01:56:35;;;;;;;;;4.00;4.00;;;;;17.23;73.90;100207.66;5007029;28;45546;-69
2022/09/08 01:59:01;;;;;;;;;4.00;4.00;;;;;17.21;74.02;100206.78;5019002;28;45494;-69
2022/09/08 02:01:26;;;;;;;;;6.33;5.00;;;;;17.23;73.76;100202.38;5016610;28;45471;-69
2022/09/08 02:03:52;;;;;;;;;5.00;5.00;;;;;17.25;73.32;100207.66;5016365;28;45516;-69
2022/09/08 02:06:17;;;;;;;;;4.67;4.33;;;;;17.24;73.44;100209.41;5017129;28;45444;-69
2022/09/08 02:08:43;;;;;;;;;5.00;5.00;;;;;17.10;74.17;100195.34;5017823;28;45559;-69
2022/09/08 02:11:09;;;;;;;;;3.00;2.67;;;;;17.18;74.73;100222.63;5017584;28;46123;-73
2022/09/08 02:13:35;;;;;;;;;5.33;5.00;;;;;17.05;74.88;100191.84;5035442;28;45414;-69
2022/09/08 02:16:07;;;;;;;;;5.00;4.00;;;;;17.03;75.19;100197.16;5029603;28;45560;-69
2022/09/08 02:18:33;;;;;;;;;6.00;5.00;;;;;17.02;75.68;100200.66;5017914;28;45600;-70
2022/09/08 02:21:07;;;;;;;;;4.00;4.00;;;;;17.08;75.95;100216.47;5016766;28;45863;-68
2022/09/08 02:23:34;;;;;;;;;4.67;4.33;;;;;17.06;75.39;100204.16;5017784;28;45371;-69
2022/09/08 02:26:00;;;;;;;;;5.67;5.00;;;;;17.12;74.79;100208.56;5017450;28;45363;-69
2022/09/08 02:28:25;;;;;;;;;5.67;5.00;;;;;17.12;75.20;100212.06;5017398;28;45367;-69
2022/09/08 02:30:55;;;;;;;;;5.67;4.33;;;;;17.02;75.53;100205.94;5017067;28;46031;-70
2022/09/08 02:33:21;;;;;;;;;4.33;4.33;;;;;17.01;75.16;100206.81;5017758;28;45523;-69
2022/09/08 02:35:46;;;;;;;;;5.00;4.33;;;;;17.12;74.68;100213.84;5016838;28;45313;-69
2022/09/08 02:38:12;;;;;;;;;4.00;3.33;;;;;17.20;74.29;100223.47;5017414;28;45553;-69
2022/09/08 02:40:38;;;;;;;;;6.33;4.67;;;;;17.23;74.03;100214.66;5016891;28;45288;-68
2022/09/08 02:43:04;;;;;;;;;3.00;3.00;;;;;17.23;74.05;100209.38;5017383;28;45344;-69
2022/09/08 02:45:29;;;;;;;;;5.00;4.33;;;;;17.23;73.70;100204.13;5015637;28;45537;-69
2022/09/08 02:47:55;;;;;;;;;4.00;4.00;;;;;17.26;74.00;100209.41;5016094;28;45295;-69
2022/09/08 02:50:21;;;;;;;;;3.00;3.00;;;;;17.34;73.94;100212.88;5015019;28;46983;-68
2022/09/08 02:52:46;;;;;;;;;4.00;4.00;;;;;17.29;74.20;100210.28;5016068;28;45669;-69
2022/09/08 02:55:12;;;;;;;;;4.00;3.33;;;;;17.24;74.26;100205.88;5032735;28;45586;-69
2022/09/08 02:57:38;;;;;;;;;5.00;5.00;;;;;17.30;74.08;100213.78;5017258;28;45346;-69
2022/09/08 03:00:03;;;;;;;;;3.67;3.33;;;;;17.18;73.89;100193.56;5017155;28;45383;-69
2022/09/08 03:02:29;;;;;;;;;4.33;4.00;;;;;17.20;73.51;100190.94;5016723;28;45548;-69
2022/09/08 03:04:55;;;;;;;;;4.67;4.00;;;;;17.38;73.87;100219.91;5017147;28;45458;-69
2022/09/08 03:07:21;;;;;;;;;4.00;4.00;;;;;17.17;74.18;100185.66;5015817;28;45421;-69
2022/09/08 03:09:47;;;;;;;;;7.00;4.00;;;;;17.29;74.16;100210.28;5016788;28;45937;-69
2022/09/08 03:12:12;;;;;;;;;7.67;6.33;;;;;17.25;74.40;100199.75;5016201;28;45356;-69
2022/09/08 03:14:38;;;;;;;;;5.00;4.00;;;;;17.19;74.17;100179.50;5016762;28;45591;-69
2022/09/08 03:17:03;;;;;;;;;4.67;4.67;;;;;17.30;74.15;100204.09;5016681;28;45474;-72
2022/09/08 03:19:29;;;;;;;;;4.00;4.00;;;;;17.17;74.20;100183.91;5015630;28;45417;-69
2022/09/08 03:21:55;;;;;;;;;5.33;5.00;;;;;17.32;74.12;100201.47;5016889;28;45321;-69
2022/09/08 03:24:20;;;;;;;;;5.00;5.00;;;;;17.29;74.37;100190.94;5016864;28;46966;-69
2022/09/08 03:26:46;;;;;;;;;6.00;6.00;;;;;17.46;74.07;100220.75;5015048;28;45525;-69
2022/09/08 03:29:11;;;;;;;;;4.00;3.33;;;;;17.39;74.05;100207.59;5013652;28;45525;-69
2022/09/08 03:31:37;;;;;;;;;4.33;4.00;;;;;17.32;73.94;100190.03;5016579;28;45402;-68
2022/09/08 03:34:02;;;;;;;;;5.33;4.00;;;;;17.34;73.63;100204.97;5016573;28;45486;-68
2022/09/08 03:36:28;;;;;;;;;4.67;4.67;;;;;17.30;74.21;100190.03;5016869;28;45442;-69
2022/09/08 03:38:54;;;;;;;;;4.33;4.00;;;;;17.37;74.30;100207.63;5012366;28;45560;-68
2022/09/08 03:41:20;;;;;;;;;5.00;5.00;;;;;17.30;74.19;100198.81;5016142;28;45422;-70
2022/09/08 03:43:48;;;;;;;;;5.67;4.00;;;;;17.22;74.59;100192.69;5016219;28;45416;-69
2022/09/08 03:46:14;;;;;;;;;4.00;4.00;;;;;17.12;75.07;100187.44;5016823;28;45360;-69
2022/09/08 03:48:40;;;;;;;;;4.00;4.00;;;;;17.07;75.40;100196.25;5015925;28;46320;-69
2022/09/08 03:51:15;;;;;;;;;4.33;3.67;;;;;17.03;75.76;100196.25;5015107;28;45576;-69
2022/09/08 03:53:42;;;;;;;;;4.00;4.00;;;;;16.87;75.60;100175.19;5016728;28;45541;-69
2022/09/08 03:56:09;;;;;;;;;5.33;4.67;;;;;16.93;75.90;100190.13;5016695;28;45529;-69
2022/09/08 03:58:36;;;;;;;;;4.00;4.00;;;;;16.97;75.81;100185.69;5015715;28;45488;-69
2022/09/08 04:01:06;;;;;;;;;5.00;4.67;;;;;16.94;76.13;100186.59;5016192;28;45469;-69
2022/09/08 04:03:31;;;;;;;;;5.00;5.00;;;;;17.00;75.93;100185.72;5016082;28;45518;-69
2022/09/08 04:05:59;;;;;;;;;5.00;5.00;;;;;16.56;75.31;100116.28;5014839;28;45325;-69
2022/09/08 04:08:24;;;;;;;;;3.33;3.33;;;;;16.97;75.17;100181.34;5016008;28;46631;-69
2022/09/08 04:10:50;;;;;;;;;4.00;4.00;;;;;17.10;75.07;100204.16;5014551;28;45660;-70
2022/09/08 04:13:15;;;;;;;;;4.33;4.00;;;;;17.03;75.29;100188.31;5015597;28;45543;-70
2022/09/08 04:15:41;;;;;;;;;4.00;4.00;;;;;16.94;75.39;100186.59;5015711;28;45510;-70
2022/09/08 04:18:06;;;;;;;;;5.00;4.33;;;;;16.98;75.40;100190.13;5015759;28;47216;-71
2022/09/08 04:20:32;;;;;;;;;6.00;5.00;;;;;16.95;75.99;100190.09;5019382;28;45710;-71
2022/09/08 04:22:57;;;;;;;;;4.00;4.00;;;;;16.82;76.41;100170.78;5019692;28;45554;-70
2022/09/08 04:25:23;;;;;;;;;6.33;5.00;;;;;16.88;76.12;100186.63;5019781;28;45486;-70
2022/09/08 04:27:49;;;;;;;;;7.00;4.00;;;;;16.80;76.54;100170.75;5019608;28;45813;-70
2022/09/08 04:30:15;;;;;;;;;6.00;4.00;;;;;16.79;76.63;100174.28;5018736;28;45315;-70
2022/09/08 04:32:40;;;;;;;;;4.33;4.00;;;;;16.84;76.91;100182.22;5018711;28;45399;-72
2022/09/08 04:35:07;;;;;;;;;6.67;6.00;;;;;16.75;76.69;100169.00;5017258;28;45566;-79
2022/09/08 04:37:33;;;;;;;;;5.33;5.00;;;;;16.89;76.72;100183.06;5019279;28;46518;-77
2022/09/08 04:39:59;;;;;;;;;5.67;4.33;;;;;16.88;76.61;100179.56;5014263;28;45545;-78
2022/09/08 04:42:24;;;;;;;;;4.33;4.00;;;;;16.86;76.08;100173.41;5044639;28;45612;-74
2022/09/08 04:44:50;;;;;;;;;5.00;5.00;;;;;16.89;75.65;100173.44;5017891;28;45738;-73
2022/09/08 04:47:16;;;;;;;;;7.67;6.00;;;;;16.88;75.77;100165.50;5017871;28;45670;-74
2022/09/08 04:49:41;;;;;;;;;5.67;5.00;;;;;16.89;75.38;100167.25;5018611;28;45366;-76
2022/09/08 04:52:07;;;;;;;;;7.67;7.00;;;;;16.99;75.51;100189.22;5018841;28;45470;-79
2022/09/08 04:54:32;;;;;;;;;8.00;8.00;;;;;16.96;75.38;100182.19;5018775;28;45320;-74
2022/09/08 04:56:58;;;;;;;;;8.00;7.00;;;;;16.99;75.35;100192.75;5018020;28;46586;-77
2022/09/08 04:59:25;;;;;;;;;6.00;5.33;;;;;16.89;75.35;100167.25;5018917;28;45514;-69
2022/09/08 05:01:50;;;;;;;;;7.00;5.00;;;;;17.01;75.00;100192.72;5013174;28;45689;-70
2022/09/08 05:04:16;;;;;;;;;8.33;7.00;;;;;16.82;75.38;100161.13;5015010;28;45576;-68
2022/09/08 05:06:42;;;;;;;;;7.00;5.33;;;;;16.90;75.69;100193.63;5017726;28;46129;-69
2022/09/08 05:09:08;;;;;;;;;3.67;2.67;;;;;16.84;75.33;100171.66;5018152;28;45514;-77
2022/09/08 05:11:35;;;;;;;;;5.00;5.00;;;;;16.98;75.06;100204.19;5018147;28;45542;-77
2022/09/08 05:14:01;;;;;;;;;5.00;5.00;;;;;16.98;74.93;100192.75;5016829;28;45598;-77
2022/09/08 05:16:28;;;;;;;;;6.00;6.00;;;;;16.95;75.01;100192.75;5017421;28;46932;-71
2022/09/08 05:18:59;;;;;;;;;4.00;4.00;;;;;16.99;75.23;100202.41;5015754;28;45473;-74
2022/09/08 05:21:26;;;;;;;;;5.00;4.00;;;;;17.00;75.07;100194.50;5018730;28;45535;-70
2022/09/08 05:23:53;;;;;;;;;5.00;5.00;;;;;17.00;75.17;100197.13;5019465;28;45410;-75
2022/09/08 05:26:20;;;;;;;;;7.00;7.00;;;;;17.03;75.10;100196.25;5018247;28;45952;-71
2022/09/08 05:28:46;;;;;;;;;13.00;10.00;;;;;17.01;75.60;100190.09;5018221;28;45439;-69
2022/09/08 05:31:17;;;;;;;;;6.33;6.33;;;;;17.00;75.23;100186.59;5017036;28;45337;-73
2022/09/08 05:33:43;;;;;;;;;6.33;6.00;;;;;16.88;75.09;100176.06;5018137;28;45443;-80
2022/09/08 05:36:34;;;;;;;;;6.33;6.33;;;;;16.94;75.02;100180.44;5018461;28;45421;-69
2022/09/08 05:39:03;;;;;;;;;6.00;5.00;;;;;16.90;74.93;100179.56;5025847;28;45455;-68
2022/09/08 05:41:30;;;;;;;;;6.67;6.00;;;;;16.82;75.43;100171.66;5001929;28;45503;-69
2022/09/08 05:43:58;;;;;;;;;8.33;7.00;;;;;16.85;75.54;100176.94;5017311;28;45662;-69
2022/09/08 05:46:25;;;;;;;;;7.67;7.33;;;;;16.83;75.64;100176.06;5017522;28;46724;-69
2022/09/08 05:49:01;;;;;;;;;8.00;6.67;;;;;16.98;75.42;100192.75;5018043;28;45436;-69
2022/09/08 05:51:26;;;;;;;;;6.33;6.00;;;;;17.03;75.27;100196.25;5003069;28;45435;-69
2022/09/08 05:53:52;;;;;;;;;7.33;6.00;;;;;16.95;75.45;100196.28;5017467;28;45546;-68
2022/09/08 05:56:18;;;;;;;;;6.67;5.00;;;;;16.84;75.51;100179.59;5017611;28;45354;-69
2022/09/08 05:58:53;;;;;;;;;5.33;5.33;;;;;16.85;76.29;100199.78;5017607;28;45531;-68
2022/09/08 06:01:18;;;;;;;;;5.67;5.00;;;;;16.74;76.85;100170.78;5017847;28;45458;-69
2022/09/08 06:03:44;;;;;;;;;5.33;5.00;;;;;16.82;76.69;100171.66;5018194;28;45571;-69
2022/09/08 06:06:11;;;;;;;;;9.00;9.00;;;;;16.93;76.72;100183.94;5017734;28;45541;-69
2022/09/08 06:08:39;;;;;;;;;7.33;7.00;;;;;17.12;76.92;100201.50;5017604;28;45383;-68
2022/09/08 06:11:05;;;;;;;;;6.00;5.00;;;;;17.17;76.59;100197.13;5017621;28;45377;-79
2022/09/08 06:13:33;;;;;;;;;7.00;7.00;;;;;17.05;76.20;100157.53;5017208;28;45502;-69
2022/09/08 06:16:04;;;;;;;;;6.00;5.67;;;;;17.34;75.67;100191.78;5017457;28;46186;-69
2022/09/08 06:18:35;;;;;;;;;6.67;6.00;;;;;17.61;74.54;100197.84;5017227;28;45384;-80
2022/09/08 06:21:15;;;;;;;;;7.67;7.67;;;;;17.76;74.06;100204.81;5017361;28;45427;-69
2022/09/08 06:23:41;;;;;;;;;8.00;8.00;;;;;17.88;73.90;100204.78;5017726;28;46083;-69
2022/09/08 06:26:16;;;;;;;;;7.33;6.00;;;;;18.03;73.34;100207.34;5016402;28;45427;-69
2022/09/08 06:28:53;;;;;;;;;6.00;6.00;;;;;18.11;72.69;100212.56;5017380;28;45561;-77
2022/09/08 06:31:29;;;;;;;;;6.00;5.33;;;;;18.22;71.84;100207.22;5017510;28;46708;-68
2022/09/08 06:34:01;;;;;;;;;6.67;4.67;;;;;18.23;71.56;100201.91;5016960;28;45235;-68
2022/09/08 06:36:43;;;;;;;;;7.33;5.67;;;;;18.49;71.18;100217.59;5016897;28;45458;-68
2022/09/08 06:39:16;;;;;;;;;6.00;5.33;;;;;18.64;70.91;100205.13;5016503;28;45481;-68
2022/09/08 06:41:49;;;;;;;;;6.67;5.67;;;;;18.87;70.40;100219.06;5014954;28;45736;-80
2022/09/08 06:44:21;;;;;;;;;6.00;6.00;;;;;19.00;69.98;100189.81;5015722;28;45669;-81
2022/09/08 06:46:47;;;;;;;;;9.67;7.00;;;;;19.26;69.30;100216.91;5016854;28;45854;-72
2022/09/08 06:49:13;;;;;;;;;5.33;4.67;;;;;19.92;68.04;100209.09;5011748;28;45844;-71
2022/09/08 06:52:19;;;;;;;;;5.00;5.00;;;;;21.32;64.17;100220.94;5014975;28;45422;-85
2022/09/08 06:54:59;;;;;;;;;7.33;5.00;;;;;22.19;60.81;100222.69;5014828;28;45720;-70
2022/09/08 06:57:44;;;;;;;;;6.33;5.00;;;;;23.57;59.48;100210.28;5012873;28;45824;-70
2022/09/08 07:00:19;;;;;;;;;7.33;4.67;;;;;25.15;55.63;100228.44;5013440;28;45508;-73
2022/09/08 07:03:12;;;;;;;;;6.00;5.00;;;;;27.66;48.79;100223.75;5015833;28;45466;-71
2022/09/08 07:05:53;;;;;;;;;6.00;6.00;;;;;29.45;45.58;100229.28;5014290;28;46246;-74
2022/09/08 07:08:56;;;;;;;;;6.33;5.00;;;;;29.60;44.93;100224.88;5012502;28;45881;-90
2022/09/08 07:11:48;;;;;;;;;6.00;5.00;;;;;29.02;44.98;100235.06;5014011;28;45511;-72
2022/09/08 07:14:32;;;;;;;;;7.33;5.00;;;;;28.63;44.48;100230.78;5028163;28;45474;-80
2022/09/08 07:17:43;;;;;;;;;7.33;5.67;;;;;28.54;44.46;100229.41;5039482;28;46022;-86
2022/09/08 07:20:10;;;;;;;;;4.00;4.00;;;;;29.08;43.90;100213.22;4952791;28;46190;-81
2022/09/08 07:23:00;;;;;;;;;5.33;4.67;;;;;29.94;43.22;100230.19;5014605;28;45549;-85
2022/09/08 07:25:42;;;;;;;;;5.00;4.33;;;;;30.56;40.19;100217.75;5028378;28;45430;-72
2022/09/08 07:28:15;;;;;;;;;6.33;5.00;;;;;30.87;40.25;100216.81;5013819;28;45552;-71
2022/09/08 07:30:41;;;;;;;;;4.00;4.00;;;;;31.56;39.87;100214.47;5014195;28;45470;-74
2022/09/08 07:33:33;;;;;;;;;7.00;7.00;;;;;32.48;37.44;100222.03;5015240;28;45496;-76
2022/09/08 07:36:04;;;;;;;;;4.00;4.00;;;;;34.02;34.49;100228.50;5014123;28;46095;-77
2022/09/08 07:38:45;;;;;;;;;4.33;4.33;;;;;36.11;31.53;100210.63;5015950;28;45368;-87
2022/09/08 07:41:34;;;;;;;;;6.67;5.00;;;;;37.00;30.34;100204.00;5011707;28;46137;-80
2022/09/08 07:44:02;;;;;;;;;4.00;3.00;;;;;36.74;31.00;100199.97;5011978;28;45708;-72
2022/09/08 07:46:42;;;;;;;;;4.33;4.33;;;;;37.65;29.14;100222.09;5028744;28;45531;-74
2022/09/08 07:49:11;;;;;;;;;3.67;3.00;;;;;38.92;26.31;100221.31;5018611;28;45737;-69
2022/09/08 07:51:59;;;;;;;;;4.00;4.00;;;;;39.79;26.44;100208.44;5014090;28;46637;-69
2022/09/08 07:54:45;;;;;;;;;5.00;4.67;;;;;40.74;25.65;100211.75;5008166;28;45737;-69
2022/09/08 07:57:21;;;;;;;;;4.33;4.33;;;;;40.94;23.53;100217.94;5012843;28;45504;-70
2022/09/08 08:00:10;;;;;;;;;3.00;3.00;;;;;39.98;25.27;100215.72;5011952;28;45644;-71
2022/09/08 08:03:16;;;;;;;;;5.00;4.00;;;;;39.18;26.76;100218.88;5010681;28;46409;-71
2022/09/08 08:06:16;;;;;;;;;5.67;4.33;;;;;39.81;25.88;100197.38;5012850;28;45497;-72
2022/09/08 08:08:47;;;;;;;;;5.33;3.67;;;;;39.98;24.17;100161.03;5015115;28;45359;-71
2022/09/08 08:11:31;;;;;;;;;5.67;4.00;;;;;40.28;24.57;100208.19;5027358;28;47107;-71
2022/09/08 08:14:23;;;;;;;;;3.00;2.00;;;;;39.82;25.22;100204.56;5011495;28;45461;-71
2022/09/08 08:17:09;;;;;;;;;0.67;0.00;;;;;39.70;25.48;100215.69;5012968;28;45598;-71
2022/09/08 08:19:35;;;;;;;;;2.33;1.67;;;;;40.69;24.89;100219.56;5012118;28;45625;-78
2022/09/08 08:22:30;;;;;;;;;2.33;2.33;;;;;41.37;24.58;100218.09;5010031;28;45590;-70
2022/09/08 08:25:09;;;;;;;;;4.33;3.00;;;;;40.89;25.25;100215.69;5005720;28;45554;-76
2022/09/08 08:27:55;;;;;;;;;1.67;1.67;;;;;40.26;24.36;100222.03;5010336;28;45720;-73
2022/09/08 08:30:22;;;;;;;;;3.00;2.33;;;;;40.30;23.94;100206.16;5012501;28;45823;-72
2022/09/08 08:32:57;;;;;;;;;4.67;2.33;;;;;40.43;24.54;100228.59;5012550;28;45530;-73
2022/09/08 08:35:51;;;;;;;;;1.67;1.67;;;;;40.13;24.15;100227.88;5013750;28;45386;-76
2022/09/08 08:38:32;;;;;;;;;0.67;0.67;;;;;39.59;25.20;100226.81;5013863;28;45864;-72
2022/09/08 08:40:59;;;;;;;;;4.00;2.67;;;;;39.05;25.94;100218.31;5013706;28;45396;-72
2022/09/08 08:43:25;;;;;;;;;4.00;2.33;;;;;38.60;25.50;100229.81;5013190;28;45510;-71
2022/09/08 08:46:15;;;;;;;;;2.00;2.00;;;;;38.05;27.36;100222.06;5012621;28;45967;-70
2022/09/08 08:49:11;;;;;;;;;2.00;2.00;;;;;37.71;28.13;100226.97;5011688;28;45469;-71
2022/09/08 08:52:08;;;;;;;;;3.00;3.00;;;;;37.47;28.59;100224.53;5009795;28;45464;-70
2022/09/08 08:55:11;;;;;;;;;3.00;2.33;;;;;37.10;28.62;100217.69;5012250;28;45495;-71
2022/09/08 08:57:58;;;;;;;;;1.67;1.67;;;;;37.07;28.62;100227.97;5009562;28;46437;-76
2022/09/08 09:00:38;;;;;;;;;3.00;2.00;;;;;37.03;28.69;100233.69;5011054;28;45815;-74
2022/09/08 09:03:15;;;;;;;;;3.00;2.33;;;;;36.76;29.33;100234.19;5011036;28;45878;-79
2022/09/08 09:05:40;;;;;;;;;4.00;2.67;;;;;36.49;30.20;100239.22;5015871;28;45459;-70
2022/09/08 09:08:25;;;;;;;;;2.33;2.33;;;;;36.11;29.74;100235.97;5018165;28;46073;-70
2022/09/08 09:11:14;;;;;;;;;1.67;1.67;;;;;35.84;30.68;100237.22;5017365;28;45471;-71
2022/09/08 09:14:04;;;;;;;;;4.00;3.00;;;;;35.57;31.35;100253.00;5016322;28;45277;-71
2022/09/08 09:16:54;;;;;;;;;3.67;2.33;;;;;35.43;31.94;100248.66;5032796;28;45533;-71
2022/09/08 09:19:50;;;;;;;;;1.33;0.67;;;;;35.46;31.07;100232.13;5015493;28;45351;-81
2022/09/08 09:22:27;;;;;;;;;2.67;2.67;;;;;35.98;31.02;100243.41;5014991;28;45570;-73
2022/09/08 09:24:59;;;;;;;;;2.00;2.00;;;;;36.42;30.07;100247.03;5028356;28;45802;-71
2022/09/08 09:27:48;;;;;;;;;2.33;2.33;;;;;36.85;29.71;100243.47;5013269;28;45409;-72
2022/09/08 09:30:30;;;;;;;;;3.00;2.67;;;;;37.19;28.45;100254.19;5015516;28;45599;-70
2022/09/08 09:33:17;;;;;;;;;4.00;3.67;;;;;36.90;28.40;100238.47;5016875;28;45435;-71
2022/09/08 09:36:28;;;;;;;;;14.00;13.00;;;;;37.69;27.01;100239.88;5017077;28;45558;-73
2022/09/08 09:39:35;;;;;;;;;8.33;8.00;;;;;38.54;26.00;100258.56;5015647;28;45302;-71
2022/09/08 09:42:31;;;;;;;;;43.00;36.50;;;;;39.03;24.85;100253.09;5014839;28;45291;-72
2022/09/08 09:45:22;;;;;;;;;33.25;31.00;;;;;39.38;24.64;100254.34;5001864;28;45576;-73
2022/09/08 09:48:12;;;;;;;;;22.00;21.33;;;;;39.32;24.37;100253.06;5031867;28;45295;-74
2022/09/08 09:51:13;;;;;;;;;16.00;15.00;;;;;38.79;23.99;100239.88;5001104;28;45675;-71
2022/09/08 09:54:00;;;;;;;;;14.67;14.33;;;;;38.79;25.95;100246.19;5016610;28;45485;-72
2022/09/08 09:57:03;;;;;;;;;10.00;9.67;;;;;39.36;25.23;100251.75;5016222;28;45625;-70
2022/09/08 09:59:47;;;;;;;;;7.00;6.67;;;;;39.67;24.75;100251.53;5017157;28;45465;-72
2022/09/08 10:02:51;;;;;;;;;12.33;12.33;;;;;39.72;24.83;100246.47;5002497;28;45299;-81
2022/09/08 10:05:44;;;;;;;;;3.67;3.67;;;;;40.00;23.16;100246.53;5017167;28;46138;-81
2022/09/08 10:08:44;;;;;;;;;3.33;2.33;;;;;39.94;23.60;100247.13;5014381;28;45472;-70
2022/09/08 10:11:37;;;;;;;;;1.67;1.67;;;;;39.68;24.22;100245.06;5002156;28;45331;-72
2022/09/08 10:14:28;;;;;;;;;4.67;4.33;;;;;40.01;23.58;100242.75;5002698;28;45410;-72
2022/09/08 10:17:11;;;;;;;;;2.33;2.00;;;;;39.95;23.76;100243.38;5016309;28;46020;-72
2022/09/08 10:19:55;;;;;;;;;3.00;3.00;;;;;39.96;23.78;100245.13;5016891;28;45398;-72
2022/09/08 10:22:45;;;;;;;;;4.00;3.00;;;;;40.01;22.94;100236.44;5015781;28;45329;-86
2022/09/08 10:25:35;;;;;;;;;10.00;10.00;;;;;39.74;23.62;100241.72;5016761;28;45589;-73
2022/09/08 10:28:26;;;;;;;;;20.33;19.00;;;;;39.62;24.19;100240.19;4995221;28;48087;-76
2022/09/08 10:31:25;;;;;;;;;19.67;17.67;;;;;39.52;22.49;100236.66;5009382;28;45525;-85
2022/09/08 10:34:09;;;;;;;;;4.33;2.00;;;;;39.03;22.95;100236.72;5012106;28;45431;-70
2022/09/08 10:36:55;;;;;;;;;5.33;5.00;;;;;38.79;24.56;100242.59;5016962;28;45427;-72
2022/09/08 10:39:38;;;;;;;;;3.67;3.33;;;;;38.58;25.86;100242.75;5016064;28;46666;-70
2022/09/08 10:42:40;;;;;;;;;3.33;3.33;;;;;38.56;26.31;100240.16;5016767;28;45567;-70
2022/09/08 10:45:40;;;;;;;;;3.67;3.00;;;;;38.22;26.15;100225.13;5017707;28;45455;-70
2022/09/08 10:48:28;;;;;;;;;4.00;2.67;;;;;37.87;25.29;100237.38;5016042;28;45479;-70
2022/09/08 10:51:08;;;;;;;;;2.33;2.33;;;;;36.67;25.49;100243.16;5015828;28;46127;-75
2022/09/08 10:53:56;;;;;;;;;4.67;3.67;;;;;35.47;26.83;100214.81;5033082;28;45267;-77
2022/09/08 10:56:28;;;;;;;;;4.67;4.00;;;;;35.42;27.61;100219.78;5017797;28;45364;-72
2022/09/08 10:59:12;;;;;;;;;1.00;1.00;;;;;35.54;27.36;100232.38;5017589;28;45183;-71
2022/09/08 11:01:51;;;;;;;;;2.67;1.67;;;;;35.65;27.54;100221.53;5016869;28;46671;-71
2022/09/08 11:04:55;;;;;;;;;2.67;2.00;;;;;35.43;27.49;100225.06;5018117;28;45413;-73
2022/09/08 11:07:29;;;;;;;;;0.67;0.67;;;;;35.38;26.25;100221.00;5012283;28;45715;-72
2022/09/08 11:10:28;;;;;;;;;1.33;1.33;;;;;35.18;26.91;100218.03;5017678;28;45284;-80
2022/09/08 11:13:20;;;;;;;;;1.33;1.33;;;;;34.95;27.42;100214.34;5005221;28;46034;-72
2022/09/08 11:16:10;;;;;;;;;2.00;2.00;;;;;34.83;28.77;100209.88;5012041;28;45371;-70
2022/09/08 11:18:59;;;;;;;;;2.67;2.67;;;;;34.67;29.69;100205.59;5002559;28;45558;-75
2022/09/08 11:21:29;;;;;;;;;3.67;3.00;;;;;34.60;29.28;100207.03;5011964;28;45495;-71
2022/09/08 11:24:20;;;;;;;;;1.67;1.67;;;;;34.38;29.84;100220.47;5013639;28;45580;-73
2022/09/08 11:27:13;;;;;;;;;1.00;1.00;;;;;34.46;29.00;100220.75;5016369;28;45498;-72
2022/09/08 11:29:39;;;;;;;;;2.67;2.00;;;;;34.35;29.12;100209.88;5014733;28;45534;-71
2022/09/08 11:32:50;;;;;;;;;0.67;0.67;;;;;33.81;28.71;100205.69;5016548;28;45415;-71
2022/09/08 11:35:24;;;;;;;;;2.00;1.00;;;;;33.84;28.57;100206.34;4957554;28;45521;-71
2022/09/08 11:38:00;;;;;;;;;0.67;0.67;;;;;33.69;28.72;100202.03;4958426;28;45930;-71
2022/09/08 11:40:49;;;;;;;;;1.67;1.67;;;;;33.31;29.61;100194.78;5002186;28;45225;-75
2022/09/08 11:43:30;;;;;;;;;2.67;2.00;;;;;33.21;30.82;100182.88;5018383;28;45569;-76
2022/09/08 11:46:08;;;;;;;;;2.00;2.00;;;;;33.03;30.70;100187.69;5017490;28;45501;-71
2022/09/08 11:49:01;;;;;;;;;2.33;2.00;;;;;32.56;30.79;100189.97;5018328;28;45223;-71
2022/09/08 11:51:35;;;;;;;;;1.67;1.67;;;;;32.23;30.60;100188.53;5016558;28;45449;-70
2022/09/08 11:54:20;;;;;;;;;1.67;0.67;;;;;32.25;32.12;100193.81;5013781;28;45635;-76
2022/09/08 11:57:20;;;;;;;;;1.33;0.67;;;;;32.29;31.86;100201.66;5016238;28;46436;-72
2022/09/08 12:00:13;;;;;;;;;2.00;1.00;;;;;32.31;31.73;100193.41;5030738;28;45568;-71
2022/09/08 12:03:18;;;;;;;;;2.67;1.67;;;;;32.37;31.83;100202.94;5016218;28;47412;-71
2022/09/08 12:05:52;;;;;;;;;1.67;1.67;;;;;32.36;31.50;100198.53;5016777;28;45618;-72
2022/09/08 12:08:27;;;;;;;;;1.33;1.33;;;;;32.15;31.48;100188.16;5016758;28;45396;-71